createdAt,value
2018-08-24T00:00:29.782Z,22.50
2018-08-24T00:02:57.631Z,21.57
2018-08-24T00:05:25.492Z,22.97
2018-08-24T00:07:53.381Z,23.80
2018-08-24T00:10:21.188Z,22.40
2018-08-24T00:12:49.059Z,23.70
2018-08-24T00:15:16.926Z,24.03
2018-08-24T00:17:47.805Z,22.67
2018-08-24T00:20:15.609Z,23.47
2018-08-24T00:22:43.535Z,22.73
2018-08-24T00:25:11.347Z,22.80
2018-08-24T00:27:39.117Z,25.07
2018-08-24T00:30:07.189Z,23.30
2018-08-24T00:32:34.952Z,24.40
2018-08-24T00:35:02.836Z,23.70
2018-08-24T00:37:30.765Z,23.53
2018-08-24T00:39:58.645Z,23.57
2018-08-24T00:42:26.433Z,25.43
2018-08-24T00:44:54.217Z,23.37
2018-08-24T00:47:22.059Z,23.57
2018-08-24T00:49:50.109Z,24.23
2018-08-24T00:52:17.978Z,22.97
2018-08-24T00:54:45.783Z,23.27
2018-08-24T00:57:13.652Z,22.67
2018-08-24T00:59:41.513Z,22.17
2018-08-24T01:02:09.398Z,24.83
2018-08-24T01:04:37.689Z,23.87
2018-08-24T01:07:10.756Z,24.97
2018-08-24T01:09:39.374Z,25.10
2018-08-24T01:12:11.908Z,23.20
2018-08-24T01:14:41.140Z,23.93
2018-08-24T01:17:14.331Z,24.03
2018-08-24T01:19:42.630Z,26.53
2018-08-24T01:22:10.424Z,24.47
2018-08-24T01:24:38.291Z,25.03
2018-08-24T01:27:07.041Z,24.60
2018-08-24T01:29:36.754Z,23.30
2018-08-24T01:32:04.822Z,23.57
2018-08-24T01:34:33.200Z,24.13
2018-08-24T01:37:00.969Z,25.00
2018-08-24T01:39:28.826Z,24.27
2018-08-24T01:41:56.660Z,25.90
2018-08-24T01:44:24.757Z,24.13
2018-08-24T01:46:52.603Z,24.00
2018-08-24T01:49:20.448Z,23.80
2018-08-24T01:51:48.193Z,23.03
2018-08-24T01:54:15.981Z,25.83
2018-08-24T01:56:43.947Z,24.70
2018-08-24T01:59:12.543Z,24.77
2018-08-24T02:01:40.301Z,25.20
2018-08-24T02:04:08.222Z,25.20
2018-08-24T02:06:36.031Z,24.70
2018-08-24T02:09:05.393Z,24.47
2018-08-24T02:11:33.983Z,25.83
2018-08-24T02:14:07.020Z,26.73
2018-08-24T02:16:37.280Z,25.83
2018-08-24T02:19:09.289Z,25.00
2018-08-24T02:21:42.434Z,25.27
2018-08-24T02:24:10.975Z,25.03
2018-08-24T02:26:38.884Z,25.17
2018-08-24T02:29:06.705Z,24.77
2018-08-24T02:31:39.947Z,25.03
2018-08-24T02:34:07.781Z,25.47
2018-08-24T02:36:35.582Z,24.27
2018-08-24T02:39:04.084Z,26.57
2018-08-24T02:41:31.988Z,25.60
2018-08-24T02:43:59.862Z,26.20
2018-08-24T02:46:27.729Z,26.10
2018-08-24T02:48:55.584Z,24.30
2018-08-24T02:51:23.475Z,24.47
2018-08-24T02:53:51.326Z,26.30
2018-08-24T02:56:19.200Z,25.93
2018-08-24T02:58:47.041Z,25.67
2018-08-24T03:01:14.829Z,24.73
2018-08-24T03:03:42.685Z,25.77
2018-08-24T03:06:10.343Z,26.60
2018-08-24T03:08:38.227Z,25.43
2018-08-24T03:11:06.089Z,25.87
2018-08-24T03:13:33.869Z,26.83
2018-08-24T03:16:01.718Z,26.13
2018-08-24T03:18:29.613Z,25.77
2018-08-24T03:20:57.454Z,25.27
2018-08-24T03:23:25.324Z,26.77
2018-08-24T03:25:53.173Z,24.67
2018-08-24T03:28:20.960Z,25.80
2018-08-24T03:30:48.835Z,25.40
2018-08-24T03:33:16.602Z,25.93
2018-08-24T03:35:44.447Z,27.80
2018-08-24T03:38:12.234Z,28.03
2018-08-24T03:40:40.065Z,28.50
2018-08-24T03:43:07.867Z,27.10
2018-08-24T03:45:35.848Z,25.53
2018-08-24T03:48:03.715Z,27.20
2018-08-24T03:50:31.470Z,26.43
2018-08-24T03:52:59.367Z,25.80
2018-08-24T03:55:27.259Z,26.07
2018-08-24T03:57:55.061Z,27.90
2018-08-24T04:00:22.924Z,27.17
2018-08-24T04:02:50.788Z,27.27
2018-08-24T04:05:18.642Z,26.70
2018-08-24T04:07:46.513Z,26.93
2018-08-24T04:10:14.401Z,27.37
2018-08-24T04:12:42.308Z,26.40
2018-08-24T04:15:10.090Z,27.57
2018-08-24T04:17:43.918Z,26.70
2018-08-24T04:20:11.952Z,28.17
2018-08-24T04:22:39.788Z,25.47
2018-08-24T04:25:07.884Z,31.37
2018-08-24T04:27:35.710Z,26.63
2018-08-24T04:30:03.587Z,25.97
2018-08-24T04:32:31.445Z,27.27
2018-08-24T04:34:59.285Z,28.70
2018-08-24T04:37:27.085Z,26.90
2018-08-24T04:39:54.967Z,26.43
2018-08-24T04:42:22.853Z,27.60
2018-08-24T04:44:50.660Z,28.47
2018-08-24T04:47:18.486Z,27.87
2018-08-24T04:49:46.309Z,26.70
2018-08-24T04:52:14.199Z,27.00
2018-08-24T04:54:42.035Z,27.77
2018-08-24T04:57:09.844Z,28.03
2018-08-24T04:59:37.694Z,26.50
2018-08-24T05:02:05.648Z,26.37
2018-08-24T05:04:33.518Z,27.23
2018-08-24T05:07:01.378Z,27.87
2018-08-24T05:09:29.195Z,26.67
2018-08-24T05:11:57.017Z,26.57
2018-08-24T05:14:24.977Z,28.10
2018-08-24T05:16:52.754Z,28.77
2018-08-24T05:19:20.634Z,28.83
2018-08-24T05:21:48.487Z,30.37
2018-08-24T05:24:16.367Z,32.23
2018-08-24T05:26:44.237Z,29.93
2018-08-24T05:29:12.103Z,29.90
2018-08-24T05:31:39.961Z,30.77
2018-08-24T05:34:07.829Z,29.70
2018-08-24T05:36:35.682Z,31.33
2018-08-24T05:39:04.426Z,30.53
2018-08-24T05:41:32.260Z,30.23
2018-08-24T05:44:00.104Z,27.87
2018-08-24T05:46:27.892Z,29.57
2018-08-24T05:48:55.739Z,27.30
2018-08-24T05:51:23.651Z,27.57
2018-08-24T05:53:51.480Z,29.80
2018-08-24T05:56:19.366Z,28.87
2018-08-24T05:58:47.220Z,30.13
2018-08-24T06:01:15.077Z,28.70
2018-08-24T06:03:42.939Z,28.50
2018-08-24T06:06:10.806Z,29.20
2018-08-24T06:08:38.673Z,29.47
2018-08-24T06:11:06.450Z,28.43
2018-08-24T06:13:34.301Z,28.77
2018-08-24T06:16:02.219Z,31.97
2018-08-24T06:18:30.049Z,28.50
2018-08-24T06:20:57.931Z,31.00
2018-08-24T06:23:25.725Z,30.47
2018-08-24T06:25:53.562Z,33.20
2018-08-24T06:28:21.445Z,29.70
2018-08-24T06:30:49.280Z,28.70
2018-08-24T06:33:17.227Z,29.33
2018-08-24T06:35:45.020Z,29.73
2018-08-24T06:38:12.900Z,26.17
2018-08-24T06:40:40.592Z,28.70
2018-08-24T06:43:08.398Z,28.33
2018-08-24T06:45:36.262Z,28.53
2018-08-24T06:48:04.014Z,28.30
2018-08-24T06:50:31.856Z,28.77
2018-08-24T06:52:59.726Z,26.27
2018-08-24T06:55:27.869Z,26.10
2018-08-24T06:57:55.660Z,27.40
2018-08-24T07:00:28.715Z,26.13
2018-08-24T07:02:56.605Z,27.00
2018-08-24T07:05:24.420Z,28.13
2018-08-24T07:07:52.197Z,28.27
2018-08-24T07:10:20.053Z,27.43
2018-08-24T07:12:47.946Z,26.30
2018-08-24T07:15:15.789Z,26.73
2018-08-24T07:17:48.816Z,27.77
2018-08-24T07:20:16.667Z,25.97
2018-08-24T07:22:44.635Z,27.43
2018-08-24T07:25:12.545Z,30.80
2018-08-24T07:27:40.377Z,27.53
2018-08-24T07:30:08.281Z,27.93
2018-08-24T07:32:36.096Z,39.90
2018-08-24T07:35:03.964Z,28.63
2018-08-24T07:37:31.745Z,28.50
2018-08-24T07:39:59.604Z,27.10
2018-08-24T07:42:27.471Z,27.90
2018-08-24T07:44:58.507Z,27.00
2018-08-24T07:47:27.670Z,26.70
2018-08-24T07:49:55.470Z,26.57
2018-08-24T07:52:23.489Z,27.17
2018-08-24T07:54:51.228Z,27.47
2018-08-24T07:57:19.022Z,26.37
2018-08-24T07:59:46.933Z,26.17
2018-08-24T08:02:14.845Z,27.37
2018-08-24T08:04:42.669Z,27.63
2018-08-24T08:07:10.560Z,26.90
2018-08-24T08:09:38.414Z,27.10
2018-08-24T08:12:06.318Z,26.37
2018-08-24T08:14:34.167Z,25.43
2018-08-24T08:17:02.690Z,26.70
2018-08-24T08:19:31.390Z,26.07
2018-08-24T08:22:04.014Z,24.63
2018-08-24T08:24:32.031Z,27.43
2018-08-24T08:26:59.839Z,29.20
2018-08-24T08:29:32.844Z,27.00
2018-08-24T08:32:00.850Z,26.50
2018-08-24T08:34:28.778Z,27.10
2018-08-24T08:36:56.657Z,25.57
2018-08-24T08:39:24.493Z,25.73
2018-08-24T08:41:52.516Z,25.63
2018-08-24T08:44:20.249Z,25.87
2018-08-24T08:46:48.096Z,26.97
2018-08-24T08:49:15.961Z,24.60
2018-08-24T08:51:43.847Z,26.43
2018-08-24T08:54:11.688Z,27.20
2018-08-24T08:56:39.610Z,24.53
2018-08-24T08:59:07.428Z,25.80
2018-08-24T09:01:35.315Z,28.10
2018-08-24T09:04:03.211Z,28.77
2018-08-24T09:06:31.162Z,28.57
2018-08-24T09:08:58.900Z,27.27
2018-08-24T09:11:26.779Z,27.60
2018-08-24T09:13:54.646Z,27.57
2018-08-24T09:16:22.397Z,27.10
2018-08-24T09:18:55.392Z,27.47
2018-08-24T09:21:28.501Z,25.00
2018-08-24T09:24:01.536Z,26.47
2018-08-24T09:26:34.568Z,25.27
2018-08-24T09:29:06.386Z,27.03
2018-08-24T09:31:37.072Z,32.07
2018-08-24T09:34:04.914Z,24.50
2018-08-24T09:36:32.765Z,27.77
2018-08-24T09:39:00.640Z,28.47
2018-08-24T09:41:28.409Z,24.53
2018-08-24T09:43:57.765Z,26.00
2018-08-24T09:46:30.816Z,24.80
2018-08-24T09:49:03.924Z,23.47
2018-08-24T09:51:31.651Z,23.40
2018-08-24T09:54:04.793Z,23.57
2018-08-24T09:56:33.496Z,24.53
2018-08-24T09:59:01.447Z,23.70
2018-08-24T10:01:34.466Z,24.00
2018-08-24T10:04:07.509Z,21.93
2018-08-24T10:06:40.585Z,23.30
2018-08-24T10:09:09.049Z,20.97
2018-08-24T10:11:37.366Z,21.30
2018-08-24T10:14:05.551Z,26.27
2018-08-24T10:16:33.420Z,22.20
2018-08-24T10:19:01.594Z,19.90
2018-08-24T10:21:29.397Z,22.10
2018-08-24T10:23:57.170Z,21.10
2018-08-24T10:26:24.930Z,20.03
2018-08-24T10:28:52.720Z,21.17
2018-08-24T10:31:20.570Z,20.73
2018-08-24T10:33:48.509Z,22.60
2018-08-24T10:36:16.292Z,22.13
2018-08-24T10:38:44.077Z,20.27
2018-08-24T10:41:11.944Z,21.47
2018-08-24T10:43:39.801Z,20.57
2018-08-24T10:46:07.668Z,21.37
2018-08-24T10:48:35.456Z,21.33
2018-08-24T10:51:03.228Z,20.60
2018-08-24T10:53:31.065Z,20.03
2018-08-24T10:55:58.987Z,20.20
2018-08-24T10:58:26.805Z,21.33
2018-08-24T11:00:54.776Z,20.23
2018-08-24T11:03:22.645Z,20.27
2018-08-24T11:05:50.514Z,18.10
2018-08-24T11:08:18.368Z,18.67
2018-08-24T11:10:46.145Z,21.43
2018-08-24T11:13:14.004Z,21.37
2018-08-24T11:15:41.864Z,21.10
2018-08-24T11:18:11.432Z,22.07
2018-08-24T11:20:41.470Z,21.50
2018-08-24T11:23:09.414Z,22.70
2018-08-24T11:25:37.186Z,21.30
2018-08-24T11:28:04.996Z,16.47
2018-08-24T11:30:32.762Z,17.70
2018-08-24T11:33:00.638Z,16.87
2018-08-24T11:35:28.755Z,16.10
2018-08-24T11:37:56.576Z,18.30
2018-08-24T11:40:24.491Z,18.30
2018-08-24T11:42:52.318Z,16.90
2018-08-24T11:45:20.198Z,17.30
2018-08-24T11:47:48.071Z,17.30
2018-08-24T11:50:15.934Z,17.73
2018-08-24T11:52:43.767Z,20.00
2018-08-24T11:55:11.551Z,18.73
2018-08-24T11:57:39.344Z,18.33
2018-08-24T12:00:06.997Z,18.93
2018-08-24T12:02:34.835Z,18.00
2018-08-24T12:05:02.512Z,18.53
2018-08-24T12:07:30.360Z,19.97
2018-08-24T12:09:58.149Z,19.10
2018-08-24T12:12:25.994Z,19.57
2018-08-24T12:14:53.870Z,20.10
2018-08-24T12:17:27.044Z,20.60
2018-08-24T12:19:54.830Z,19.43
2018-08-24T12:22:22.585Z,21.10
2018-08-24T12:24:50.304Z,20.03
2018-08-24T12:27:18.067Z,19.27
2018-08-24T12:29:45.884Z,20.50
2018-08-24T12:32:13.649Z,20.00
2018-08-24T12:34:41.448Z,20.47
2018-08-24T12:37:11.473Z,20.70
2018-08-24T12:39:39.985Z,18.87
2018-08-24T12:42:08.677Z,20.30
2018-08-24T12:44:36.492Z,19.27
2018-08-24T12:47:04.240Z,18.97
2018-08-24T12:49:32.249Z,19.53
2018-08-24T12:52:00.065Z,19.80
2018-08-24T12:54:27.956Z,19.67
2018-08-24T12:56:55.823Z,19.23
2018-08-24T12:59:23.686Z,19.10
2018-08-24T13:01:51.525Z,19.80
2018-08-24T13:04:19.433Z,19.30
2018-08-24T13:06:47.296Z,18.43
2018-08-24T13:09:15.148Z,17.70
2018-08-24T13:11:43.032Z,20.20
2018-08-24T13:14:10.949Z,19.67
2018-08-24T13:16:38.798Z,18.87
2018-08-24T13:19:06.766Z,18.87
2018-08-24T13:21:34.735Z,18.97
2018-08-24T13:24:02.543Z,18.83
2018-08-24T13:26:30.339Z,19.77
2018-08-24T13:28:58.173Z,20.90
2018-08-24T13:31:25.957Z,20.07
2018-08-24T13:33:53.828Z,20.07
2018-08-24T13:36:21.698Z,19.97
2018-08-24T13:38:49.620Z,18.60
2018-08-24T13:41:17.513Z,19.87
2018-08-24T13:43:45.389Z,20.73
2018-08-24T13:46:19.126Z,19.20
2018-08-24T13:48:47.657Z,19.50
2018-08-24T13:51:15.876Z,20.73
2018-08-24T13:53:43.961Z,20.93
2018-08-24T13:56:11.862Z,19.70
2018-08-24T13:58:39.678Z,19.60
2018-08-24T14:01:07.591Z,20.40
2018-08-24T14:03:35.459Z,20.20
2018-08-24T14:06:03.262Z,20.17
2018-08-24T14:08:31.058Z,18.30
2018-08-24T14:10:59.259Z,17.97
2018-08-24T14:13:27.107Z,18.77
2018-08-24T14:15:54.944Z,30.40
2018-08-24T14:18:22.834Z,17.23
2018-08-24T14:20:50.770Z,18.23
2018-08-24T14:23:18.544Z,20.20
2018-08-24T14:25:46.440Z,24.73
2018-08-24T14:28:14.260Z,26.17
2018-08-24T14:30:42.054Z,29.17
2018-08-24T14:33:09.928Z,32.30
2018-08-24T14:35:37.779Z,30.90
2018-08-24T14:38:05.737Z,30.00
2018-08-24T14:40:33.512Z,26.93
2018-08-24T14:43:01.364Z,28.10
2018-08-24T14:45:29.146Z,27.10
2018-08-24T14:47:57.156Z,25.63
2018-08-24T14:50:25.335Z,24.87
2018-08-24T14:52:53.174Z,27.57
2018-08-24T14:55:21.016Z,24.70
2018-08-24T14:57:48.878Z,27.23
2018-08-24T15:00:16.640Z,26.60
2018-08-24T15:02:44.504Z,25.67
2018-08-24T15:05:12.925Z,25.63
2018-08-24T15:07:40.842Z,24.73
2018-08-24T15:10:09.293Z,25.47
2018-08-24T15:12:37.118Z,26.83
2018-08-24T15:15:05.242Z,24.80
2018-08-24T15:17:33.203Z,24.30
2018-08-24T15:20:02.334Z,24.43
2018-08-24T15:22:30.221Z,25.70
2018-08-24T15:24:57.879Z,26.27
2018-08-24T15:27:25.646Z,25.07
2018-08-24T15:29:53.659Z,26.63
2018-08-24T15:32:21.512Z,25.70
2018-08-24T15:34:49.881Z,25.80
2018-08-24T15:37:17.728Z,28.13
2018-08-24T15:39:45.521Z,27.67
2018-08-24T15:42:13.116Z,27.67
2018-08-24T15:44:41.081Z,27.97
2018-08-24T15:47:08.913Z,28.03
2018-08-24T15:49:36.764Z,28.50
2018-08-24T15:52:04.601Z,29.93
2018-08-24T15:54:32.305Z,27.90
2018-08-24T15:57:00.174Z,28.10
2018-08-24T15:59:28.741Z,27.47
2018-08-24T16:01:56.600Z,23.97
2018-08-24T16:04:24.389Z,24.57
2018-08-24T16:06:52.179Z,26.80
2018-08-24T16:09:20.695Z,26.50
2018-08-24T16:11:48.651Z,27.40
2018-08-24T16:14:16.448Z,25.93
2018-08-24T16:16:44.131Z,24.60
2018-08-24T16:19:11.988Z,27.67
2018-08-24T16:21:39.786Z,25.30
2018-08-24T16:24:07.667Z,24.27
2018-08-24T16:26:35.488Z,23.20
2018-08-24T16:29:03.408Z,23.37
2018-08-24T16:31:31.215Z,23.83
2018-08-24T16:33:59.086Z,23.20
2018-08-24T16:36:26.847Z,20.63
2018-08-24T16:38:54.758Z,22.70
2018-08-24T16:41:23.092Z,21.70
2018-08-24T16:43:50.997Z,20.83
2018-08-24T16:46:18.829Z,19.40
2018-08-24T16:48:46.746Z,21.07
2018-08-24T16:51:14.372Z,19.50
2018-08-24T16:53:42.264Z,19.30
2018-08-24T16:56:10.123Z,21.83
2018-08-24T16:58:37.949Z,20.83
2018-08-24T17:01:06.057Z,20.47
2018-08-24T17:03:33.913Z,21.73
2018-08-24T17:06:01.825Z,20.67
2018-08-24T17:08:29.639Z,21.00
2018-08-24T17:10:57.395Z,21.13
2018-08-24T17:13:25.070Z,21.47
2018-08-24T17:15:52.833Z,20.93
2018-08-24T17:18:20.729Z,20.13
2018-08-24T17:20:48.560Z,21.10
2018-08-24T17:23:16.331Z,20.10
2018-08-24T17:25:44.117Z,19.30
2018-08-24T17:28:11.983Z,21.47
2018-08-24T17:30:39.724Z,20.07
2018-08-24T17:33:07.541Z,21.73
2018-08-24T17:35:35.499Z,19.50
2018-08-24T17:38:03.331Z,20.97
2018-08-24T17:40:31.214Z,20.17
2018-08-24T17:42:59.082Z,19.10
2018-08-24T17:45:26.759Z,22.47
2018-08-24T17:47:54.624Z,19.83
2018-08-24T17:50:22.483Z,20.17
2018-08-24T17:52:50.077Z,20.13
2018-08-24T17:55:17.920Z,22.17
2018-08-24T17:57:45.763Z,21.90
2018-08-24T18:00:13.522Z,19.23
2018-08-24T18:02:41.402Z,20.47
2018-08-24T18:05:09.039Z,19.87
2018-08-24T18:07:36.642Z,20.23
2018-08-24T18:10:04.294Z,20.37
2018-08-24T18:12:31.945Z,20.40
2018-08-24T18:14:59.721Z,20.33
2018-08-24T18:17:27.190Z,20.53
2018-08-24T18:19:54.792Z,19.90
2018-08-24T18:22:22.398Z,20.13
2018-08-24T18:24:50.006Z,20.67
2018-08-24T18:27:17.981Z,21.83
2018-08-24T18:29:45.880Z,20.13
2018-08-24T18:32:13.779Z,21.67
2018-08-24T18:34:41.630Z,22.60
2018-08-24T18:37:09.465Z,21.20
2018-08-24T18:39:37.266Z,22.00
2018-08-24T18:42:05.171Z,21.10
2018-08-24T18:44:33.022Z,21.10
2018-08-24T18:47:00.972Z,20.63
2018-08-24T18:49:28.916Z,20.73
2018-08-24T18:51:56.805Z,19.77
2018-08-24T18:54:24.682Z,21.60
2018-08-24T18:56:52.625Z,20.40
2018-08-24T18:59:20.513Z,21.73
2018-08-24T19:01:48.389Z,21.53
2018-08-24T19:04:16.357Z,21.40
2018-08-24T19:06:44.236Z,20.70
2018-08-24T19:09:12.193Z,20.37
2018-08-24T19:11:45.156Z,21.10
2018-08-24T19:14:12.770Z,21.27
2018-08-24T19:16:40.432Z,20.17
2018-08-24T19:19:13.466Z,22.10
2018-08-24T19:21:41.535Z,21.47
2018-08-24T19:24:09.373Z,20.77
2018-08-24T19:26:37.367Z,21.20
2018-08-24T19:29:10.324Z,20.93
2018-08-24T19:31:37.914Z,19.50
2018-08-24T19:34:05.563Z,20.17
2018-08-24T19:36:33.155Z,20.73
2018-08-24T19:39:00.768Z,18.93
2018-08-24T19:41:33.626Z,19.63
2018-08-24T19:44:01.491Z,19.43
2018-08-24T19:46:29.135Z,20.67
2018-08-24T19:49:02.003Z,20.97
2018-08-24T19:51:29.818Z,21.10
2018-08-24T19:53:57.698Z,22.93
2018-08-24T19:56:25.435Z,21.33
2018-08-24T19:58:58.670Z,20.63
2018-08-24T20:01:26.469Z,21.27
2018-08-24T20:03:54.376Z,20.87
2018-08-24T20:06:27.388Z,21.43
2018-08-24T20:09:00.769Z,20.30
2018-08-24T20:11:28.657Z,20.33
2018-08-24T20:14:02.843Z,19.47
2018-08-24T20:16:35.805Z,20.33
2018-08-24T20:19:03.992Z,22.00
2018-08-24T20:21:31.884Z,19.87
2018-08-24T20:23:59.753Z,20.40
2018-08-24T20:26:27.470Z,20.13
2018-08-24T20:28:55.081Z,20.95
2018-08-24T20:31:22.692Z,20.82
2018-08-24T20:33:50.430Z,20.03
2018-08-24T20:36:18.221Z,20.30
2018-08-24T20:38:45.812Z,18.60
2018-08-24T20:41:13.394Z,19.37
2018-08-24T20:43:40.997Z,19.20
2018-08-24T20:46:08.600Z,19.27
2018-08-24T20:48:36.233Z,17.90
2018-08-24T20:51:03.826Z,20.33
2018-08-24T20:53:31.444Z,19.53
2018-08-24T20:55:59.063Z,19.73
2018-08-24T20:58:26.920Z,19.10
2018-08-24T21:00:54.736Z,20.07
2018-08-24T21:03:22.619Z,18.43
2018-08-24T21:05:50.564Z,19.90
2018-08-24T21:08:18.362Z,17.73
2018-08-24T21:10:46.206Z,18.10
2018-08-24T21:13:13.883Z,18.10
2018-08-24T21:15:41.778Z,18.90
2018-08-24T21:18:09.392Z,17.37
2018-08-24T21:20:37.276Z,17.33
2018-08-24T21:23:04.965Z,19.53
2018-08-24T21:25:32.605Z,19.47
2018-08-24T21:28:00.201Z,19.70
2018-08-24T21:30:27.812Z,20.17
2018-08-24T21:32:55.399Z,17.73
2018-08-24T21:35:23.006Z,18.07
2018-08-24T21:37:50.580Z,17.70
2018-08-24T21:40:18.370Z,20.23
2018-08-24T21:42:45.977Z,16.27
2018-08-24T21:45:14.477Z,17.10
2018-08-24T21:47:42.164Z,18.60
2018-08-24T21:50:09.763Z,17.67
2018-08-24T21:52:37.341Z,17.80
2018-08-24T21:55:04.983Z,18.57
2018-08-24T21:57:32.538Z,17.60
2018-08-24T22:00:00.120Z,18.73
2018-08-24T22:02:27.697Z,18.13
2018-08-24T22:04:55.502Z,18.27
2018-08-24T22:07:23.276Z,17.57
2018-08-24T22:09:51.228Z,17.27
2018-08-24T22:12:18.994Z,17.63
2018-08-24T22:14:47.067Z,16.93
2018-08-24T22:17:14.945Z,17.13
2018-08-24T22:19:42.699Z,18.23
2018-08-24T22:22:10.469Z,17.37
2018-08-24T22:24:38.367Z,17.30
2018-08-24T22:27:06.131Z,17.37
2018-08-24T22:29:34.000Z,17.37
2018-08-24T22:32:01.828Z,15.90
2018-08-24T22:34:29.605Z,16.60
2018-08-24T22:36:57.468Z,17.70
2018-08-24T22:39:25.341Z,17.00
2018-08-24T22:41:53.192Z,14.90
2018-08-24T22:44:20.956Z,15.13
2018-08-24T22:46:48.836Z,14.73
2018-08-24T22:49:16.733Z,14.20
2018-08-24T22:51:44.572Z,14.27
2018-08-24T22:54:12.438Z,13.83
2018-08-24T22:56:40.364Z,14.27
2018-08-24T22:59:08.166Z,13.37
2018-08-24T23:01:35.959Z,13.80
2018-08-24T23:04:03.791Z,13.63
2018-08-24T23:06:31.569Z,13.30
2018-08-24T23:08:59.464Z,13.33
2018-08-24T23:11:27.284Z,13.93
2018-08-24T23:13:55.067Z,12.90
2018-08-24T23:16:22.831Z,13.00
2018-08-24T23:18:50.591Z,11.70
2018-08-24T23:21:18.367Z,13.00
2018-08-24T23:23:46.227Z,17.83
2018-08-24T23:26:14.012Z,13.10
2018-08-24T23:28:41.856Z,12.67
2018-08-24T23:31:09.652Z,12.53
2018-08-24T23:33:37.606Z,12.70
2018-08-24T23:36:05.541Z,11.90
2018-08-24T23:38:33.344Z,12.13
2018-08-24T23:41:01.180Z,13.03
2018-08-24T23:43:28.977Z,12.13
2018-08-24T23:45:56.812Z,11.10
2018-08-24T23:48:24.584Z,10.80
2018-08-24T23:50:52.347Z,10.67
2018-08-24T23:53:20.107Z,10.87
2018-08-24T23:55:47.897Z,10.70
2018-08-24T23:58:15.655Z,10.13
